sensor_id;sensor_type;location;lat;lon;timestamp;pressure;altitude;pressure_sealevel;temperature;humidity
34983;BME280;21187;50.976;13.720;2023-07-08T00:03:15;98689.91;;;22.73;35.17
34983;BME280;21187;50.976;13.720;2023-07-08T00:08:19;98686.38;;;22.73;35.09
34983;BME280;21187;50.976;13.720;2023-07-08T00:13:21;98691.06;;;22.76;35.08
34983;BME280;21187;50.976;13.720;2023-07-08T00:18:23;98698.63;;;22.72;34.92
34983;BME280;21187;50.976;13.720;2023-07-08T00:23:25;98708.91;;;22.71;34.26
34983;BME280;21187;50.976;13.720;2023-07-08T00:28:27;98706.13;;;22.71;33.89
34983;BME280;21187;50.976;13.720;2023-07-08T00:33:29;98710.91;;;22.67;33.82
34983;BME280;21187;50.976;13.720;2023-07-08T00:38:31;98711.88;;;22.57;33.72
34983;BME280;21187;50.976;13.720;2023-07-08T00:43:39;98695.53;;;22.42;33.83
34983;BME280;21187;50.976;13.720;2023-07-08T00:48:42;98703.09;;;22.38;33.80
34983;BME280;21187;50.976;13.720;2023-07-08T00:53:45;98700.38;;;22.31;33.82
34983;BME280;21187;50.976;13.720;2023-07-08T00:59:02;98690.63;;;22.26;33.92
34983;BME280;21187;50.976;13.720;2023-07-08T01:04:09;98690.19;;;22.28;33.92
34983;BME280;21187;50.976;13.720;2023-07-08T01:09:14;98688.25;;;22.25;34.33
34983;BME280;21187;50.976;13.720;2023-07-08T01:14:18;98683.22;;;22.20;34.49
34983;BME280;21187;50.976;13.720;2023-07-08T01:19:21;98685.28;;;22.12;34.71
34983;BME280;21187;50.976;13.720;2023-07-08T01:24:36;98678.97;;;22.11;34.52
34983;BME280;21187;50.976;13.720;2023-07-08T01:29:40;98682.19;;;22.06;34.75
34983;BME280;21187;50.976;13.720;2023-07-08T01:34:42;98680.75;;;21.98;35.14
34983;BME280;21187;50.976;13.720;2023-07-08T01:39:44;98670.63;;;21.88;35.26
34983;BME280;21187;50.976;13.720;2023-07-08T01:44:46;98658.13;;;21.80;35.05
34983;BME280;21187;50.976;13.720;2023-07-08T01:49:48;98666.06;;;21.77;34.99
34983;BME280;21187;50.976;13.720;2023-07-08T01:54:55;98662.19;;;21.71;35.24
34983;BME280;21187;50.976;13.720;2023-07-08T01:59:57;98663.09;;;21.61;35.28
34983;BME280;21187;50.976;13.720;2023-07-08T02:04:59;98660.84;;;21.49;35.52
34983;BME280;21187;50.976;13.720;2023-07-08T02:10:01;98658.19;;;21.38;35.48
34983;BME280;21187;50.976;13.720;2023-07-08T02:15:04;98661.09;;;21.27;35.62
34983;BME280;21187;50.976;13.720;2023-07-08T02:20:06;98656.09;;;21.15;35.74
34983;BME280;21187;50.976;13.720;2023-07-08T02:25:10;98650.28;;;21.09;35.98
34983;BME280;21187;50.976;13.720;2023-07-08T02:30:12;98657.38;;;21.06;36.40
34983;BME280;21187;50.976;13.720;2023-07-08T02:35:14;98645.59;;;21.02;36.14
34983;BME280;21187;50.976;13.720;2023-07-08T02:40:16;98649.16;;;20.99;36.20
34983;BME280;21187;50.976;13.720;2023-07-08T02:45:18;98642.50;;;20.97;36.20
34983;BME280;21187;50.976;13.720;2023-07-08T02:50:21;98655.84;;;21.02;36.28
34983;BME280;21187;50.976;13.720;2023-07-08T02:55:23;98648.34;;;21.02;36.23
34983;BME280;21187;50.976;13.720;2023-07-08T03:00:24;98653.84;;;21.02;36.07
34983;BME280;21187;50.976;13.720;2023-07-08T03:05:26;98653.47;;;21.04;35.95
34983;BME280;21187;50.976;13.720;2023-07-08T03:10:28;98654.22;;;21.04;36.09
34983;BME280;21187;50.976;13.720;2023-07-08T03:15:30;98645.59;;;21.02;36.18
34983;BME280;21187;50.976;13.720;2023-07-08T03:20:32;98645.59;;;21.02;35.87
34983;BME280;21187;50.976;13.720;2023-07-08T03:25:35;98639.34;;;20.98;36.60
34983;BME280;21187;50.976;13.720;2023-07-08T03:30:38;98647.25;;;20.96;36.66
34983;BME280;21187;50.976;13.720;2023-07-08T03:35:41;98660.56;;;21.01;36.97
34983;BME280;21187;50.976;13.720;2023-07-08T03:40:43;98655.00;;;21.05;36.78
34983;BME280;21187;50.976;13.720;2023-07-08T03:45:46;98648.28;;;21.09;36.54
34983;BME280;21187;50.976;13.720;2023-07-08T03:50:51;98653.34;;;21.15;36.63
34983;BME280;21187;50.976;13.720;2023-07-08T03:55:53;98650.19;;;21.16;36.91
34983;BME280;21187;50.976;13.720;2023-07-08T04:00:55;98651.72;;;21.21;36.96
34983;BME280;21187;50.976;13.720;2023-07-08T04:05:58;98651.66;;;21.24;37.11
34983;BME280;21187;50.976;13.720;2023-07-08T04:11:00;98653.19;;;21.29;37.22
34983;BME280;21187;50.976;13.720;2023-07-08T04:16:05;98646.50;;;21.30;37.31
34983;BME280;21187;50.976;13.720;2023-07-08T04:21:07;98670.50;;;21.30;37.39
34983;BME280;21187;50.976;13.720;2023-07-08T04:26:12;98653.19;;;21.29;37.60
34983;BME280;21187;50.976;13.720;2023-07-08T04:31:13;98654.84;;;21.23;38.00
34983;BME280;21187;50.976;13.720;2023-07-08T04:36:15;98653.66;;;21.24;38.38
34983;BME280;21187;50.976;13.720;2023-07-08T04:41:17;98651.63;;;21.28;38.46
34983;BME280;21187;50.976;13.720;2023-07-08T04:51:30;98647.16;;;21.41;38.20
34983;BME280;21187;50.976;13.720;2023-07-08T04:56:45;98649.84;;;21.49;38.50
34983;BME280;21187;50.976;13.720;2023-07-08T05:01:48;98666.31;;;21.56;38.75
34983;BME280;21187;50.976;13.720;2023-07-08T05:06:51;98670.06;;;21.69;38.89
34983;BME280;21187;50.976;13.720;2023-07-08T05:11:53;98667.53;;;21.86;38.76
34983;BME280;21187;50.976;13.720;2023-07-08T05:16:56;98665.03;;;21.95;38.95
34983;BME280;21187;50.976;13.720;2023-07-08T05:21:58;98672.84;;;22.00;38.88
34983;BME280;21187;50.976;13.720;2023-07-08T05:27:00;98671.13;;;22.10;38.92
34983;BME280;21187;50.976;13.720;2023-07-08T05:32:02;98671.75;;;22.21;38.93
34983;BME280;21187;50.976;13.720;2023-07-08T05:37:04;98685.31;;;22.39;39.11
34983;BME280;21187;50.976;13.720;2023-07-08T05:42:06;98681.84;;;22.59;39.06
34983;BME280;21187;50.976;13.720;2023-07-08T05:47:08;98687.53;;;22.75;38.93
34983;BME280;21187;50.976;13.720;2023-07-08T05:52:10;98688.97;;;22.84;39.00
34983;BME280;21187;50.976;13.720;2023-07-08T05:57:12;98693.47;;;22.98;38.97
34983;BME280;21187;50.976;13.720;2023-07-08T06:02:14;98693.88;;;23.20;38.86
34983;BME280;21187;50.976;13.720;2023-07-08T06:07:16;98699.31;;;23.47;38.81
34983;BME280;21187;50.976;13.720;2023-07-08T06:12:19;98698.53;;;23.67;38.50
34983;BME280;21187;50.976;13.720;2023-07-08T06:17:21;98704.41;;;23.89;38.80
34983;BME280;21187;50.976;13.720;2023-07-08T06:22:23;98709.50;;;24.11;38.84
34983;BME280;21187;50.976;13.720;2023-07-08T06:27:45;98695.91;;;24.36;38.83
34983;BME280;21187;50.976;13.720;2023-07-08T06:32:47;98694.84;;;24.67;38.55
34983;BME280;21187;50.976;13.720;2023-07-08T06:37:49;98690.03;;;25.00;38.19
34983;BME280;21187;50.976;13.720;2023-07-08T06:42:51;98689.72;;;25.28;38.39
34983;BME280;21187;50.976;13.720;2023-07-08T06:48:05;98690.88;;;25.60;37.81
34983;BME280;21187;50.976;13.720;2023-07-08T06:53:07;98683.03;;;25.84;37.66
34983;BME280;21187;50.976;13.720;2023-07-08T06:58:09;98687.44;;;26.11;37.59
34983;BME280;21187;50.976;13.720;2023-07-08T07:03:12;98674.31;;;26.50;37.15
34983;BME280;21187;50.976;13.720;2023-07-08T07:08:14;98670.31;;;26.77;37.05
34983;BME280;21187;50.976;13.720;2023-07-08T07:13:16;98672.91;;;27.06;36.91
34983;BME280;21187;50.976;13.720;2023-07-08T07:18:18;98679.69;;;27.40;36.40
34983;BME280;21187;50.976;13.720;2023-07-08T07:23:20;98675.41;;;27.70;36.24
34983;BME280;21187;50.976;13.720;2023-07-08T07:28:23;98673.44;;;28.02;35.64
34983;BME280;21187;50.976;13.720;2023-07-08T07:33:25;98684.38;;;28.28;35.18
34983;BME280;21187;50.976;13.720;2023-07-08T07:38:27;98669.28;;;28.57;34.46
34983;BME280;21187;50.976;13.720;2023-07-08T07:43:30;98678.06;;;28.87;34.23
34983;BME280;21187;50.976;13.720;2023-07-08T07:48:32;98667.88;;;29.12;33.66
34983;BME280;21187;50.976;13.720;2023-07-08T07:53:34;98660.13;;;29.34;33.26
34983;BME280;21187;50.976;13.720;2023-07-08T07:58:36;98666.28;;;29.57;33.26
34983;BME280;21187;50.976;13.720;2023-07-08T08:03:38;98662.84;;;29.81;32.96
34983;BME280;21187;50.976;13.720;2023-07-08T08:08:39;98674.56;;;30.03;32.64
34983;BME280;21187;50.976;13.720;2023-07-08T08:13:42;98660.69;;;30.28;32.27
34983;BME280;21187;50.976;13.720;2023-07-08T08:18:44;98667.56;;;30.51;32.14
34983;BME280;21187;50.976;13.720;2023-07-08T08:23:46;98656.63;;;30.62;31.80
34983;BME280;21187;50.976;13.720;2023-07-08T08:28:47;98658.06;;;30.82;31.54
34983;BME280;21187;50.976;13.720;2023-07-08T08:33:51;98658.09;;;30.97;31.32
34983;BME280;21187;50.976;13.720;2023-07-08T08:38:53;98660.69;;;31.10;30.87
34983;BME280;21187;50.976;13.720;2023-07-08T08:43:55;98660.00;;;31.15;30.41
34983;BME280;21187;50.976;13.720;2023-07-08T08:54:37;98658.88;;;31.36;29.09
34983;BME280;21187;50.976;13.720;2023-07-08T08:59:57;98660.34;;;31.47;28.73
34983;BME280;21187;50.976;13.720;2023-07-08T09:05:06;98659.94;;;31.54;28.83
34983;BME280;21187;50.976;13.720;2023-07-08T09:10:35;98661.09;;;31.47;28.64
34983;BME280;21187;50.976;13.720;2023-07-08T09:15:42;98660.75;;;31.69;28.00
34983;BME280;21187;50.976;13.720;2023-07-08T09:20:43;98666.16;;;31.88;27.32
34983;BME280;21187;50.976;13.720;2023-07-08T09:26:05;98659.19;;;31.98;26.79
34983;BME280;21187;50.976;13.720;2023-07-08T09:31:24;98662.31;;;32.00;26.65
34983;BME280;21187;50.976;13.720;2023-07-08T09:36:27;98669.22;;;32.20;25.88
34983;BME280;21187;50.976;13.720;2023-07-08T09:41:34;98652.03;;;32.27;25.88
34983;BME280;21187;50.976;13.720;2023-07-08T09:46:36;98659.94;;;32.29;25.93
34983;BME280;21187;50.976;13.720;2023-07-08T09:51:39;98667.34;;;32.47;25.71
34983;BME280;21187;50.976;13.720;2023-07-08T09:56:44;98657.00;;;32.74;24.81
34983;BME280;21187;50.976;13.720;2023-07-08T10:01:50;98671.44;;;33.08;24.09
34983;BME280;21187;50.976;13.720;2023-07-08T10:06:54;98656.50;;;33.43;23.42
34983;BME280;21187;50.976;13.720;2023-07-08T10:12:02;98651.56;;;33.58;23.01
34983;BME280;21187;50.976;13.720;2023-07-08T10:17:07;98648.47;;;33.56;23.49
34983;BME280;21187;50.976;13.720;2023-07-08T10:27:23;98659.56;;;33.39;22.80
34983;BME280;21187;50.976;13.720;2023-07-08T10:32:53;98642.13;;;33.61;22.21
34983;BME280;21187;50.976;13.720;2023-07-08T10:43:52;98643.34;;;33.81;21.69
34983;BME280;21187;50.976;13.720;2023-07-08T10:49:06;98657.84;;;33.74;21.39
34983;BME280;21187;50.976;13.720;2023-07-08T11:10:38;98626.66;;;33.72;20.92
34983;BME280;21187;50.976;13.720;2023-07-08T11:15:47;98624.03;;;33.62;21.09
34983;BME280;21187;50.976;13.720;2023-07-08T11:21:05;98624.38;;;33.44;21.59
34983;BME280;21187;50.976;13.720;2023-07-08T11:31:22;98617.22;;;33.43;21.11
34983;BME280;21187;50.976;13.720;2023-07-08T11:36:25;98617.88;;;33.58;20.93
34983;BME280;21187;50.976;13.720;2023-07-08T11:41:31;98612.44;;;33.81;20.84
34983;BME280;21187;50.976;13.720;2023-07-08T11:46:33;98613.06;;;33.96;20.82
34983;BME280;21187;50.976;13.720;2023-07-08T11:51:38;98606.44;;;33.99;20.88
34983;BME280;21187;50.976;13.720;2023-07-08T11:56:50;98611.09;;;34.03;20.22
34983;BME280;21187;50.976;13.720;2023-07-08T12:02:04;98611.75;;;33.92;20.16
34983;BME280;21187;50.976;13.720;2023-07-08T12:07:16;98609.25;;;33.67;19.00
34983;BME280;21187;50.976;13.720;2023-07-08T12:12:26;98598.94;;;33.53;19.37
34983;BME280;21187;50.976;13.720;2023-07-08T12:17:29;98604.41;;;33.68;19.65
34983;BME280;21187;50.976;13.720;2023-07-08T12:22:32;98599.66;;;34.12;19.35
34983;BME280;21187;50.976;13.720;2023-07-08T12:27:35;98610.44;;;34.25;19.21
34983;BME280;21187;50.976;13.720;2023-07-08T12:32:38;98607.59;;;34.19;19.25
34983;BME280;21187;50.976;13.720;2023-07-08T12:37:41;98602.31;;;34.32;19.36
34983;BME280;21187;50.976;13.720;2023-07-08T12:42:44;98588.41;;;34.66;18.73
34983;BME280;21187;50.976;13.720;2023-07-08T12:47:47;98594.63;;;34.82;18.60
34983;BME280;21187;50.976;13.720;2023-07-08T12:52:50;98592.78;;;34.73;18.39
34983;BME280;21187;50.976;13.720;2023-07-08T12:57:54;98587.38;;;34.58;18.72
34983;BME280;21187;50.976;13.720;2023-07-08T13:03:18;98590.34;;;34.43;18.71
34983;BME280;21187;50.976;13.720;2023-07-08T13:08:27;98586.31;;;34.50;18.81
34983;BME280;21187;50.976;13.720;2023-07-08T13:13:47;98585.56;;;34.55;19.00
34983;BME280;21187;50.976;13.720;2023-07-08T13:18:51;98586.88;;;34.65;18.42
34983;BME280;21187;50.976;13.720;2023-07-08T13:23:54;98575.09;;;34.61;18.39
34983;BME280;21187;50.976;13.720;2023-07-08T13:29:01;98575.38;;;34.69;18.08
34983;BME280;21187;50.976;13.720;2023-07-08T13:34:15;98562.44;;;34.83;18.27
34983;BME280;21187;50.976;13.720;2023-07-08T13:39:31;98561.13;;;34.84;18.07
34983;BME280;21187;50.976;13.720;2023-07-08T13:44:42;98564.72;;;34.85;18.65
34983;BME280;21187;50.976;13.720;2023-07-08T13:49:49;98561.09;;;34.78;18.89
34983;BME280;21187;50.976;13.720;2023-07-08T13:55:12;98559.84;;;34.85;18.64
34983;BME280;21187;50.976;13.720;2023-07-08T14:00:20;98558.31;;;34.84;18.67
34983;BME280;21187;50.976;13.720;2023-07-08T14:05:22;98561.63;;;34.82;18.50
34983;BME280;21187;50.976;13.720;2023-07-08T14:10:24;98568.31;;;34.85;18.17
34983;BME280;21187;50.976;13.720;2023-07-08T14:15:26;98561.66;;;34.88;18.46
34983;BME280;21187;50.976;13.720;2023-07-08T14:20:29;98549.56;;;34.71;18.67
34983;BME280;21187;50.976;13.720;2023-07-08T14:25:31;98559.50;;;34.60;18.33
34983;BME280;21187;50.976;13.720;2023-07-08T14:30:44;98546.69;;;34.48;18.54
34983;BME280;21187;50.976;13.720;2023-07-08T14:35:47;98551.50;;;34.42;18.27
34983;BME280;21187;50.976;13.720;2023-07-08T14:40:50;98550.00;;;34.46;18.37
34983;BME280;21187;50.976;13.720;2023-07-08T14:45:55;98546.09;;;34.32;18.59
34983;BME280;21187;50.976;13.720;2023-07-08T14:50:58;98552.69;;;34.24;18.20
34983;BME280;21187;50.976;13.720;2023-07-08T14:56:07;98544.75;;;34.22;18.73
34983;BME280;21187;50.976;13.720;2023-07-08T15:01:20;98552.13;;;34.14;18.86
34983;BME280;21187;50.976;13.720;2023-07-08T15:06:24;98535.03;;;34.17;18.63
34983;BME280;21187;50.976;13.720;2023-07-08T15:11:26;98548.06;;;34.21;18.93
34983;BME280;21187;50.976;13.720;2023-07-08T15:16:28;98547.50;;;34.05;19.06
34983;BME280;21187;50.976;13.720;2023-07-08T15:21:30;98557.09;;;33.93;18.89
34983;BME280;21187;50.976;13.720;2023-07-08T15:26:31;98543.78;;;33.82;19.08
34983;BME280;21187;50.976;13.720;2023-07-08T15:31:33;98544.41;;;33.65;18.87
34983;BME280;21187;50.976;13.720;2023-07-08T15:36:36;98553.63;;;33.72;18.93
34983;BME280;21187;50.976;13.720;2023-07-08T15:41:38;98550.09;;;33.77;18.86
34983;BME280;21187;50.976;13.720;2023-07-08T15:46:46;98531.28;;;33.83;18.80
34983;BME280;21187;50.976;13.720;2023-07-08T15:51:50;98546.28;;;33.80;19.15
34983;BME280;21187;50.976;13.720;2023-07-08T15:56:53;98534.25;;;33.74;19.13
34983;BME280;21187;50.976;13.720;2023-07-08T16:02:03;98532.16;;;33.68;20.09
34983;BME280;21187;50.976;13.720;2023-07-08T16:07:08;98526.25;;;33.61;19.89
34983;BME280;21187;50.976;13.720;2023-07-08T16:12:16;98535.16;;;33.59;19.85
34983;BME280;21187;50.976;13.720;2023-07-08T16:17:20;98544.84;;;33.58;20.12
34983;BME280;21187;50.976;13.720;2023-07-08T16:22:22;98548.91;;;33.57;20.23
34983;BME280;21187;50.976;13.720;2023-07-08T16:27:25;98550.38;;;33.47;20.55
34983;BME280;21187;50.976;13.720;2023-07-08T16:32:27;98547.53;;;33.41;20.83
34983;BME280;21187;50.976;13.720;2023-07-08T16:37:30;98552.81;;;33.33;20.94
34983;BME280;21187;50.976;13.720;2023-07-08T16:42:32;98543.59;;;33.27;20.91
34983;BME280;21187;50.976;13.720;2023-07-08T16:47:34;98548.63;;;33.23;21.21
34983;BME280;21187;50.976;13.720;2023-07-08T16:52:37;98544.00;;;33.20;21.39
34983;BME280;21187;50.976;13.720;2023-07-08T16:57:39;98541.19;;;33.20;21.59
34983;BME280;21187;50.976;13.720;2023-07-08T17:02:43;98536.31;;;33.15;21.85
34983;BME280;21187;50.976;13.720;2023-07-08T17:07:46;98536.31;;;33.15;22.23
34983;BME280;21187;50.976;13.720;2023-07-08T17:12:48;98542.91;;;33.12;22.31
34983;BME280;21187;50.976;13.720;2023-07-08T17:17:52;98529.31;;;33.05;21.99
34983;BME280;21187;50.976;13.720;2023-07-08T17:22:58;98529.47;;;32.95;22.00
34983;BME280;21187;50.976;13.720;2023-07-08T17:28:00;98530.94;;;32.85;22.42
34983;BME280;21187;50.976;13.720;2023-07-08T17:33:02;98530.34;;;32.81;22.43
34983;BME280;21187;50.976;13.720;2023-07-08T17:38:10;98520.13;;;32.78;22.81
34983;BME280;21187;50.976;13.720;2023-07-08T17:43:12;98527.41;;;32.69;23.10
34983;BME280;21187;50.976;13.720;2023-07-08T17:48:21;98516.91;;;32.64;23.27
34983;BME280;21187;50.976;13.720;2023-07-08T17:53:26;98529.31;;;32.58;22.98
34983;BME280;21187;50.976;13.720;2023-07-08T17:58:31;98509.34;;;32.50;23.08
34983;BME280;21187;50.976;13.720;2023-07-08T18:03:34;98527.88;;;32.42;22.87
34983;BME280;21187;50.976;13.720;2023-07-08T18:08:36;98521.91;;;32.34;22.81
34983;BME280;21187;50.976;13.720;2023-07-08T18:13:39;98520.81;;;32.26;22.81
34983;BME280;21187;50.976;13.720;2023-07-08T18:18:43;98519.56;;;32.12;23.14
34983;BME280;21187;50.976;13.720;2023-07-08T18:23:47;98519.63;;;31.97;23.27
34983;BME280;21187;50.976;13.720;2023-07-08T18:28:50;98517.84;;;31.79;23.51
34983;BME280;21187;50.976;13.720;2023-07-08T18:33:52;98523.88;;;31.72;23.84
34983;BME280;21187;50.976;13.720;2023-07-08T18:38:54;98528.91;;;31.67;24.37
34983;BME280;21187;50.976;13.720;2023-07-08T18:43:57;98527.69;;;31.59;24.19
34983;BME280;21187;50.976;13.720;2023-07-08T18:49:00;98531.59;;;31.47;24.80
34983;BME280;21187;50.976;13.720;2023-07-08T18:54:05;98541.06;;;31.34;25.39
34983;BME280;21187;50.976;13.720;2023-07-08T18:59:09;98546.84;;;31.16;25.33
34983;BME280;21187;50.976;13.720;2023-07-08T19:04:21;98537.53;;;30.95;25.68
34983;BME280;21187;50.976;13.720;2023-07-08T19:09:24;98544.94;;;30.83;25.83
34983;BME280;21187;50.976;13.720;2023-07-08T19:14:27;98546.31;;;30.73;25.98
34983;BME280;21187;50.976;13.720;2023-07-08T19:19:32;98557.72;;;30.60;26.32
34983;BME280;21187;50.976;13.720;2023-07-08T19:24:34;98557.06;;;30.41;26.23
34983;BME280;21187;50.976;13.720;2023-07-08T19:29:39;98562.31;;;30.24;26.28
34983;BME280;21187;50.976;13.720;2023-07-08T19:34:42;98558.31;;;30.15;26.47
34983;BME280;21187;50.976;13.720;2023-07-08T19:39:45;98568.16;;;30.01;26.62
34983;BME280;21187;50.976;13.720;2023-07-08T19:44:47;98573.19;;;29.88;27.08
34983;BME280;21187;50.976;13.720;2023-07-08T19:49:49;98574.50;;;29.68;26.88
34983;BME280;21187;50.976;13.720;2023-07-08T19:54:51;98581.53;;;29.45;26.85
34983;BME280;21187;50.976;13.720;2023-07-08T19:59:54;98581.56;;;29.27;27.27
34983;BME280;21187;50.976;13.720;2023-07-08T20:04:56;98582.19;;;29.12;27.69
34983;BME280;21187;50.976;13.720;2023-07-08T20:09:58;98592.59;;;28.93;27.53
34983;BME280;21187;50.976;13.720;2023-07-08T20:15:01;98584.03;;;28.78;27.84
34983;BME280;21187;50.976;13.720;2023-07-08T20:20:27;98578.91;;;28.58;27.65
34983;BME280;21187;50.976;13.720;2023-07-08T20:25:29;98582.00;;;28.42;27.71
34983;BME280;21187;50.976;13.720;2023-07-08T20:30:32;98592.66;;;28.34;27.92
34983;BME280;21187;50.976;13.720;2023-07-08T20:35:37;98594.81;;;28.30;27.79
34983;BME280;21187;50.976;13.720;2023-07-08T20:40:40;98602.84;;;27.96;28.14
34983;BME280;21187;50.976;13.720;2023-07-08T20:45:45;98608.44;;;27.96;28.21
34983;BME280;21187;50.976;13.720;2023-07-08T20:50:50;98608.34;;;27.78;28.28
34983;BME280;21187;50.976;13.720;2023-07-08T20:55:52;98621.72;;;27.61;28.30
34983;BME280;21187;50.976;13.720;2023-07-08T21:00:54;98624.94;;;27.59;28.41
34983;BME280;21187;50.976;13.720;2023-07-08T21:05:57;98619.66;;;27.52;28.26
34983;BME280;21187;50.976;13.720;2023-07-08T21:11:02;98635.28;;;27.36;28.66
34983;BME280;21187;50.976;13.720;2023-07-08T21:16:15;98632.44;;;27.27;28.83
34983;BME280;21187;50.976;13.720;2023-07-08T21:21:19;98625.06;;;27.11;28.89
34983;BME280;21187;50.976;13.720;2023-07-08T21:26:25;98628.66;;;26.99;28.96
34983;BME280;21187;50.976;13.720;2023-07-08T21:31:28;98633.47;;;26.98;29.15
34983;BME280;21187;50.976;13.720;2023-07-08T21:36:33;98625.00;;;27.02;28.93
34983;BME280;21187;50.976;13.720;2023-07-08T21:41:35;98631.00;;;27.00;28.63
34983;BME280;21187;50.976;13.720;2023-07-08T21:46:37;98635.50;;;26.85;28.83
34983;BME280;21187;50.976;13.720;2023-07-08T21:51:39;98632.84;;;26.68;29.01
34983;BME280;21187;50.976;13.720;2023-07-08T21:56:42;98628.19;;;26.65;28.60
34983;BME280;21187;50.976;13.720;2023-07-08T22:01:44;98629.41;;;26.64;28.55
34983;BME280;21187;50.976;13.720;2023-07-08T22:06:47;98635.41;;;26.63;28.87
34983;BME280;21187;50.976;13.720;2023-07-08T22:11:49;98646.13;;;26.38;29.09
34983;BME280;21187;50.976;13.720;2023-07-08T22:16:51;98652.91;;;26.12;29.34
34983;BME280;21187;50.976;13.720;2023-07-08T22:22:11;98649.53;;;25.91;29.69
34983;BME280;21187;50.976;13.720;2023-07-08T22:27:13;98654.19;;;25.68;30.03
34983;BME280;21187;50.976;13.720;2023-07-08T22:32:15;98652.13;;;25.56;29.99
34983;BME280;21187;50.976;13.720;2023-07-08T22:37:16;98653.59;;;25.61;30.27
34983;BME280;21187;50.976;13.720;2023-07-08T22:42:18;98661.66;;;25.55;30.56
34983;BME280;21187;50.976;13.720;2023-07-08T22:47:20;98660.75;;;25.45;31.31
34983;BME280;21187;50.976;13.720;2023-07-08T22:52:29;98661.66;;;25.55;31.45
34983;BME280;21187;50.976;13.720;2023-07-08T22:57:32;98666.78;;;25.56;30.99
34983;BME280;21187;50.976;13.720;2023-07-08T23:02:34;98670.25;;;25.61;31.14
34983;BME280;21187;50.976;13.720;2023-07-08T23:07:36;98667.91;;;25.59;31.32
34983;BME280;21187;50.976;13.720;2023-07-08T23:12:38;98662.41;;;25.42;31.59
34983;BME280;21187;50.976;13.720;2023-07-08T23:17:42;98665.75;;;25.21;32.00
34983;BME280;21187;50.976;13.720;2023-07-08T23:22:45;98670.72;;;25.13;31.56
34983;BME280;21187;50.976;13.720;2023-07-08T23:27:47;98676.91;;;24.88;31.81
34983;BME280;21187;50.976;13.720;2023-07-08T23:32:49;98685.91;;;24.75;32.07
34983;BME280;21187;50.976;13.720;2023-07-08T23:37:51;98682.97;;;24.66;32.34
34983;BME280;21187;50.976;13.720;2023-07-08T23:42:54;98677.03;;;24.48;32.60
34983;BME280;21187;50.976;13.720;2023-07-08T23:47:56;98677.91;;;24.45;32.75
34983;BME280;21187;50.976;13.720;2023-07-08T23:52:58;98683.78;;;24.30;32.78
34983;BME280;21187;50.976;13.720;2023-07-08T23:58:00;98686.69;;;24.23;33.29
